Aktuální počasí v Česku a ve světě - METAR

Seznam meteostanic umístěných nejčasteji na letišti v ČR a ve světě

Vyhledat místa podle abecedy:
A B C D E F G H I J K L M N O P Q R S T U V W X Y Z

Filtrovat:

ID stanice:
a/nebo
Název místa (fulltext):
 
Místo (ID)Naposledy načteno 
Gaborone (FBSK) 05.03.2021 09:00 UTC Zobrazit METAR
FBSK 050900Z 04003KT 330V110 CAVOK 29/15 Q1017 NOSIG
Gaza (LVGZ) Zatím nenačteno  
Geneva (LSGG) 05.03.2021 08:50 UTC Zobrazit METAR
LSGG 050850Z 06006KT 9999 FEW040 BKN060 09/04 Q1019 NOSIG
George Town (MWCR) 05.03.2021 03:00 UTC Zobrazit METAR
MWCR 050300Z VRB02KT 9999 FEW025 26/21 Q1015
Georgetown (SYCJ) 05.03.2021 09:00 UTC Zobrazit METAR
SYCJ 050900Z VRB02KT 9999 FEW014 BKN080 23/22 Q1011 NOSIG
Gibraltar (LXGB) 05.03.2021 08:50 UTC Zobrazit METAR
LXGB 050850Z 11016KT 9999 BKN010 BKN020 15/13 Q1014 TEMPO 6000 SHRA RMK GRN TEMPO GRN
Glasgow (EGPF) 05.03.2021 08:50 UTC Zobrazit METAR
EGPF 050850Z AUTO VRB02KT 9999 OVC033 03/M04 Q1036
Gomel (UMGG) 30.08.2014 17:00 UTC Zobrazit METAR
UMGG 301700Z CAVOK 19/10 Q1017 R28/CLRD// NOSIG
Goteborg (ESGG) 05.03.2021 08:50 UTC Zobrazit METAR
ESGG 050850Z 34005KT CAVOK M00/M08 Q1023 R03/09//95
Grand Turk Island (MBGT) 05.03.2021 00:00 UTC Zobrazit METAR
MBGT 050000Z 28008KT 9999 FEW010 25/20 Q1013
Graz (LOWG) 05.03.2021 08:50 UTC Zobrazit METAR
LOWG 050850Z 14003KT 080V190 9999 FEW070 10/02 Q1013 NOSIG
Grodno (UMMG) Zatím nenačteno  
Guatemala City (MGGT) 05.03.2021 09:00 UTC Zobrazit METAR
MGGT 050900Z 02006KT CAVOK 14/10 Q1024 A3024
Reklama

Reklama


Počasí na Váš email

Emaily jsou bez reklamy a bez spamu



Odhlásit newsletter



Další české internetové stránky (nejen) o počasí najdete v katalogu TOPlist - weby o počasí nebo vyhledejte na internetu, co jste tu na 🌞 Slunečnu ⛅ zatím nenašli:
⭐ Přidat Slunečno.cz do oblíbených | 🏠 Nastavit Slunečno.cz jako HOMEPAGE

⬆️ Posunout stránku nahoru ⬆️
Reklama